Time,TemperatureF,DewpointF,PressureIn,WindDirection,WindDirectionDegrees,WindSpeedMPH,WindSpeedGustMPH,Humidity,HourlyPrecipIn,Conditions,Clouds,dailyrainin,SoftwareType,DateUTC
2013-05-09 00:02:00,63.0,53.0,29.91,NNW,327,1.0,3.0,70,0.00,,,0.00,,2013-05-09 05:02:00,
2013-05-09 00:12:00,63.0,53.0,29.91,NNW,327,1.0,3.0,70,0.00,,,0.00,,2013-05-09 05:12:00,
2013-05-09 00:22:00,62.0,53.0,29.91,NNW,327,1.0,3.0,72,0.00,,,0.00,,2013-05-09 05:22:00,
2013-05-09 00:32:00,61.0,52.0,29.90,NW,325,2.0,3.0,73,0.00,,,0.00,,2013-05-09 05:32:00,
2013-05-09 00:42:00,61.0,52.0,29.90,NW,325,2.0,3.0,73,0.00,,,0.00,,2013-05-09 05:42:00,
2013-05-09 00:52:00,61.0,52.0,29.90,WNW,299,3.0,4.0,73,0.00,,,0.00,,2013-05-09 05:52:00,
2013-05-09 01:02:00,60.0,52.0,29.90,West,277,2.0,4.0,74,0.00,,,0.00,,2013-05-09 06:02:00,
2013-05-09 01:12:00,60.0,52.0,29.90,West,277,2.0,4.0,74,0.00,,,0.00,,2013-05-09 06:12:00,
2013-05-09 01:21:00,60.0,52.0,29.90,West,277,3.0,4.0,74,0.00,,,0.00,,2013-05-09 06:21:00,
2013-05-09 01:32:00,60.0,51.0,29.90,West,277,2.0,3.0,73,0.00,,,0.00,,2013-05-09 06:32:00,
2013-05-09 01:42:00,60.0,51.0,29.90,West,277,2.0,3.0,73,0.00,,,0.00,,2013-05-09 06:42:00,
2013-05-09 01:52:00,61.0,51.0,29.90,West,279,0.0,5.0,69,0.00,,,0.00,,2013-05-09 06:52:00,
2013-05-09 02:01:00,62.0,51.0,29.89,West,279,1.0,3.0,68,0.00,,,0.00,,2013-05-09 07:01:00,
2013-05-09 02:12:00,61.0,52.0,29.89,West,275,3.0,4.0,72,0.00,,,0.00,,2013-05-09 07:12:00,
2013-05-09 02:21:00,61.0,52.0,29.89,West,275,3.0,4.0,72,0.00,,,0.00,,2013-05-09 07:21:00,
2013-05-09 02:32:00,60.0,52.0,29.89,West,272,2.0,4.0,75,0.00,,,0.00,,2013-05-09 07:32:00,
2013-05-09 02:42:00,60.0,52.0,29.89,West,272,2.0,4.0,75,0.00,,,0.00,,2013-05-09 07:42:00,
2013-05-09 02:52:00,59.0,51.0,29.88,West,265,3.0,5.0,76,0.00,,,0.00,,2013-05-09 07:52:00,
2013-05-09 03:02:00,60.0,52.0,29.89,WSW,241,4.0,7.0,74,0.00,,,0.00,,2013-05-09 08:02:00,
2013-05-09 03:11:00,60.0,52.0,29.89,WSW,241,4.0,7.0,74,0.00,,,0.00,,2013-05-09 08:11:00,
2013-05-09 03:21:00,61.0,52.0,29.90,WSW,240,4.0,7.0,72,0.00,,,0.00,,2013-05-09 08:21:00,
2013-05-09 03:31:00,61.0,52.0,29.90,WSW,240,3.0,6.0,72,0.00,,,0.00,,2013-05-09 08:31:00,
2013-05-09 03:42:00,61.0,52.0,29.90,WSW,240,3.0,6.0,72,0.00,,,0.00,,2013-05-09 08:42:00,
2013-05-09 03:52:00,61.0,52.0,29.90,WSW,240,3.0,5.0,73,0.00,,,0.00,,2013-05-09 08:52:00,
2013-05-09 04:02:00,62.0,53.0,29.90,WSW,240,3.0,4.0,73,0.00,,,0.00,,2013-05-09 09:02:00,
2013-05-09 04:11:00,62.0,53.0,29.90,WSW,240,3.0,4.0,73,0.00,,,0.00,,2013-05-09 09:11:00,
2013-05-09 04:21:00,62.0,53.0,29.89,WSW,240,2.0,3.0,73,0.00,,,0.00,,2013-05-09 09:21:00,
2013-05-09 04:32:00,61.0,53.0,29.89,WSW,240,2.0,3.0,74,0.00,,,0.00,,2013-05-09 09:32:00,
2013-05-09 04:42:00,61.0,53.0,29.89,WSW,240,2.0,3.0,74,0.00,,,0.00,,2013-05-09 09:42:00,
2013-05-09 04:53:00,60.0,52.0,29.89,WSW,240,3.0,5.0,76,0.00,,,0.00,,2013-05-09 09:53:00,
2013-05-09 05:02:00,60.0,53.0,29.89,WSW,240,3.0,5.0,77,0.00,,,0.00,,2013-05-09 10:02:00,
2013-05-09 05:12:00,60.0,53.0,29.88,WSW,240,3.0,4.0,78,0.00,,,0.00,,2013-05-09 10:12:00,
2013-05-09 05:22:00,60.0,53.0,29.88,WSW,240,3.0,4.0,78,0.00,,,0.00,,2013-05-09 10:22:00,
2013-05-09 05:33:00,59.0,53.0,29.88,WSW,240,3.0,4.0,80,0.00,,,0.00,,2013-05-09 10:33:00,
2013-05-09 05:42:00,59.0,53.0,29.88,WSW,240,3.0,4.0,80,0.00,,,0.00,,2013-05-09 10:42:00,
2013-05-09 05:52:00,59.0,53.0,29.88,WSW,240,3.0,4.0,80,0.00,,,0.00,,2013-05-09 10:52:00,
2013-05-09 06:02:00,59.0,53.0,29.88,WSW,240,2.0,4.0,81,0.00,,,0.00,,2013-05-09 11:02:00,
2013-05-09 06:12:00,59.0,53.0,29.89,WSW,240,4.0,6.0,81,0.00,,,0.00,,2013-05-09 11:12:00,
2013-05-09 06:22:00,59.0,53.0,29.89,WSW,240,4.0,6.0,81,0.00,,,0.00,,2013-05-09 11:22:00,
2013-05-09 06:32:00,60.0,54.0,29.90,SSW,196,4.0,7.0,80,0.00,,,0.00,,2013-05-09 11:32:00,
2013-05-09 06:41:00,60.0,54.0,29.90,SSW,196,4.0,7.0,80,0.00,,,0.00,,2013-05-09 11:41:00,
2013-05-09 06:52:00,60.0,54.0,29.90,South,186,4.0,7.0,80,0.00,,,0.00,,2013-05-09 11:52:00,
2013-05-09 07:01:00,60.0,54.0,29.90,South,186,4.0,7.0,80,0.00,,,0.00,,2013-05-09 12:01:00,
2013-05-09 07:11:00,60.0,54.0,29.90,South,186,4.0,6.0,81,0.00,,,0.00,,2013-05-09 12:11:00,
2013-05-09 07:22:00,60.0,54.0,29.90,South,186,4.0,6.0,81,0.00,,,0.00,,2013-05-09 12:22:00,
2013-05-09 07:31:00,62.0,56.0,29.90,South,182,4.0,6.0,81,0.00,,,0.00,,2013-05-09 12:31:00,
2013-05-09 07:42:00,63.0,56.0,29.91,South,183,7.0,10.0,78,0.00,,,0.00,,2013-05-09 12:42:00,
2013-05-09 07:52:00,63.0,56.0,29.91,South,183,7.0,10.0,78,0.00,,,0.00,,2013-05-09 12:52:00,
2013-05-09 08:01:00,64.0,57.0,29.90,South,179,4.0,9.0,77,0.00,,,0.00,,2013-05-09 13:01:00,
2013-05-09 08:12:00,64.0,57.0,29.90,South,179,4.0,9.0,77,0.00,,,0.00,,2013-05-09 13:12:00,
2013-05-09 08:21:00,65.0,57.0,29.91,South,180,8.0,11.0,75,0.00,,,0.00,,2013-05-09 13:21:00,
2013-05-09 08:32:00,66.0,57.0,29.91,South,176,6.0,10.0,74,0.00,,,0.00,,2013-05-09 13:32:00,
2013-05-09 08:42:00,66.0,57.0,29.91,South,176,6.0,10.0,74,0.00,,,0.00,,2013-05-09 13:42:00,
2013-05-09 08:52:00,67.0,58.0,29.91,South,171,6.0,10.0,74,0.00,,,0.00,,2013-05-09 13:52:00,
2013-05-09 09:01:00,67.0,58.0,29.91,South,175,8.0,12.0,72,0.00,,,0.00,,2013-05-09 14:01:00,
2013-05-09 09:11:00,67.0,58.0,29.91,South,175,8.0,12.0,72,0.00,,,0.00,,2013-05-09 14:11:00,
2013-05-09 09:21:00,68.0,57.0,29.91,South,182,7.0,10.0,69,0.00,,,0.00,,2013-05-09 14:21:00,
2013-05-09 09:32:00,69.0,58.0,29.91,South,190,7.0,10.0,69,0.00,,,0.00,,2013-05-09 14:32:00,
2013-05-09 09:41:00,69.0,58.0,29.91,South,190,7.0,10.0,69,0.00,,,0.00,,2013-05-09 14:41:00,
2013-05-09 09:52:00,71.0,59.0,29.92,SSW,205,8.0,14.0,65,0.00,,,0.00,,2013-05-09 14:52:00,
2013-05-09 10:01:00,70.0,58.0,29.93,SW,234,7.0,13.0,65,0.00,,,0.00,,2013-05-09 15:01:00,
2013-05-09 10:11:00,70.0,58.0,29.93,SW,234,7.0,13.0,65,0.00,,,0.00,,2013-05-09 15:11:00,
2013-05-09 10:22:00,69.0,58.0,29.93,West,263,14.0,19.0,68,0.00,,,0.00,,2013-05-09 15:22:00,
2013-05-09 10:33:00,67.0,57.0,29.94,West,266,12.0,17.0,71,0.00,,,0.00,,2013-05-09 15:33:00,
2013-05-09 10:43:00,65.0,57.0,29.94,WSW,257,9.0,16.0,76,0.00,,,0.00,,2013-05-09 15:43:00,
2013-05-09 10:53:00,65.0,57.0,29.94,WSW,257,9.0,16.0,76,0.00,,,0.00,,2013-05-09 15:53:00,
2013-05-09 11:03:00,63.0,58.0,29.94,West,280,7.0,11.0,83,0.01,,,0.01,,2013-05-09 16:03:00,
2013-05-09 11:12:00,63.0,58.0,29.94,West,280,7.0,11.0,83,0.01,,,0.01,,2013-05-09 16:12:00,
2013-05-09 11:22:00,63.0,59.0,29.94,West,278,5.0,10.0,86,0.02,,,0.02,,2013-05-09 16:22:00,
2013-05-09 11:33:00,63.0,59.0,29.94,West,261,7.0,11.0,87,0.02,,,0.02,,2013-05-09 16:33:00,
2013-05-09 11:42:00,63.0,59.0,29.94,West,261,7.0,11.0,87,0.02,,,0.02,,2013-05-09 16:42:00,
2013-05-09 11:53:00,63.0,59.0,29.94,West,269,4.0,11.0,86,0.03,,,0.03,,2013-05-09 16:53:00,
2013-05-09 12:02:00,63.0,59.0,29.92,West,269,0.0,3.0,86,0.02,,,0.03,,2013-05-09 17:02:00,
2013-05-09 12:12:00,63.0,59.0,29.92,West,269,0.0,3.0,86,0.02,,,0.03,,2013-05-09 17:12:00,
2013-05-09 12:21:00,63.0,58.0,29.90,South,182,0.0,3.0,85,0.02,,,0.04,,2013-05-09 17:21:00,
2013-05-09 12:32:00,64.0,60.0,29.90,SE,146,0.0,3.0,86,0.02,,,0.04,,2013-05-09 17:32:00,
2013-05-09 12:42:00,64.0,60.0,29.90,SE,146,0.0,3.0,86,0.02,,,0.04,,2013-05-09 17:42:00,
2013-05-09 12:55:00,65.0,60.0,29.91,ESE,123,6.0,10.0,85,0.01,,,0.04,,2013-05-09 17:55:00,
2013-05-09 13:01:00,65.0,61.0,29.90,ESE,120,5.0,10.0,86,0.01,,,0.04,,2013-05-09 18:01:00,
2013-05-09 13:12:00,65.0,61.0,29.90,ESE,120,5.0,10.0,86,0.01,,,0.04,,2013-05-09 18:12:00,
2013-05-09 13:21:00,66.0,62.0,29.90,ESE,121,8.0,11.0,87,0.00,,,0.04,,2013-05-09 18:21:00,
2013-05-09 13:31:00,66.0,61.0,29.90,ESE,121,8.0,12.0,85,0.00,,,0.04,,2013-05-09 18:31:00,
2013-05-09 13:42:00,66.0,61.0,29.90,ESE,121,8.0,12.0,85,0.00,,,0.04,,2013-05-09 18:42:00,
2013-05-09 13:52:00,67.0,62.0,29.90,SE,126,9.0,11.0,84,0.00,,,0.04,,2013-05-09 18:52:00,
2013-05-09 14:01:00,66.0,61.0,29.90,SSE,148,6.0,10.0,85,0.00,,,0.04,,2013-05-09 19:01:00,
2013-05-09 14:12:00,66.0,61.0,29.90,SSE,148,6.0,10.0,85,0.00,,,0.04,,2013-05-09 19:12:00,
2013-05-09 14:21:00,66.0,61.0,29.90,SSE,166,6.0,9.0,85,0.00,,,0.04,,2013-05-09 19:21:00,
2013-05-09 14:31:00,65.0,61.0,29.91,SSE,163,4.0,7.0,87,0.02,,,0.06,,2013-05-09 19:31:00,
2013-05-09 14:41:00,65.0,61.0,29.91,SSE,163,4.0,7.0,87,0.02,,,0.06,,2013-05-09 19:41:00,
2013-05-09 14:52:00,65.0,61.0,29.90,SSE,163,3.0,6.0,88,0.07,,,0.11,,2013-05-09 19:52:00,
2013-05-09 15:01:00,64.0,61.0,29.90,SSE,164,2.0,5.0,89,0.15,,,0.19,,2013-05-09 20:01:00,
2013-05-09 15:11:00,64.0,61.0,29.90,SSE,164,2.0,5.0,89,0.15,,,0.19,,2013-05-09 20:11:00,
2013-05-09 15:22:00,64.0,61.0,29.90,SSE,164,3.0,5.0,89,0.22,,,0.26,,2013-05-09 20:22:00,
2013-05-09 15:32:00,64.0,61.0,29.90,SSE,164,3.0,5.0,90,0.28,,,0.35,,2013-05-09 20:32:00,
2013-05-09 15:42:00,64.0,61.0,29.91,SSE,164,5.0,7.0,90,0.31,,,0.43,,2013-05-09 20:42:00,
2013-05-09 15:52:00,64.0,61.0,29.91,SSE,164,5.0,7.0,90,0.31,,,0.43,,2013-05-09 20:52:00,
2013-05-09 16:01:00,63.0,60.0,29.90,SE,135,6.0,8.0,91,0.33,,,0.52,,2013-05-09 21:01:00,
2013-05-09 16:11:00,63.0,60.0,29.90,SE,135,6.0,8.0,91,0.33,,,0.52,,2013-05-09 21:11:00,
2013-05-09 16:22:00,63.0,60.0,29.87,ESE,118,4.0,9.0,91,0.28,,,0.55,,2013-05-09 21:22:00,
2013-05-09 16:32:00,62.0,60.0,29.83,East,88,4.0,7.0,92,0.21,,,0.56,,2013-05-09 21:32:00,
2013-05-09 16:43:00,62.0,60.0,29.82,East,90,5.0,10.0,92,0.13,,,0.56,,2013-05-09 21:43:00,
2013-05-09 16:53:00,62.0,60.0,29.82,East,90,5.0,10.0,92,0.13,,,0.56,,2013-05-09 21:53:00,
2013-05-09 17:03:00,62.0,60.0,29.81,East,85,6.0,10.0,92,0.05,,,0.56,,2013-05-09 22:03:00,
2013-05-09 17:12:00,63.0,61.0,29.81,ESE,109,7.0,12.0,92,0.02,,,0.56,,2013-05-09 22:12:00,
2013-05-09 17:22:00,63.0,61.0,29.81,ESE,109,7.0,12.0,92,0.02,,,0.56,,2013-05-09 22:22:00,
2013-05-09 17:33:00,63.0,60.0,29.81,ESE,118,11.0,19.0,91,0.01,,,0.56,,2013-05-09 22:33:00,
2013-05-09 17:42:00,63.0,60.0,29.80,ESE,121,14.0,19.0,91,0.00,,,0.56,,2013-05-09 22:42:00,
2013-05-09 17:52:00,63.0,60.0,29.80,ESE,121,14.0,19.0,91,0.00,,,0.56,,2013-05-09 22:52:00,
2013-05-09 18:02:00,63.0,60.0,29.80,ESE,121,10.0,16.0,91,0.00,,,0.56,,2013-05-09 23:02:00,
2013-05-09 18:12:00,63.0,60.0,29.79,ESE,117,8.0,12.0,89,0.00,,,0.56,,2013-05-09 23:12:00,
2013-05-09 18:21:00,63.0,60.0,29.79,ESE,117,8.0,12.0,89,0.00,,,0.56,,2013-05-09 23:21:00,
2013-05-09 18:32:00,63.0,59.0,29.78,ESE,115,8.0,12.0,88,0.00,,,0.56,,2013-05-09 23:32:00,
2013-05-09 18:42:00,63.0,59.0,29.78,ESE,115,8.0,13.0,87,0.00,,,0.56,,2013-05-09 23:42:00,
2013-05-09 18:52:00,63.0,59.0,29.78,ESE,115,8.0,13.0,87,0.00,,,0.56,,2013-05-09 23:52:00,
2013-05-09 19:01:00,63.0,59.0,29.77,ESE,117,9.0,14.0,87,0.00,,,0.56,,2013-05-10 00:01:00,
2013-05-09 19:11:00,62.0,58.0,29.78,ESE,113,10.0,16.0,88,0.05,,,0.62,,2013-05-10 00:11:00,
2013-05-09 19:22:00,62.0,58.0,29.78,ESE,113,10.0,16.0,88,0.05,,,0.62,,2013-05-10 00:22:00,
2013-05-09 19:32:00,62.0,59.0,29.78,SE,131,13.0,20.0,89,0.10,,,0.67,,2013-05-10 00:32:00,
2013-05-09 19:42:00,62.0,59.0,29.78,SE,141,12.0,16.0,90,0.12,,,0.69,,2013-05-10 00:42:00,
2013-05-09 19:52:00,62.0,59.0,29.78,SE,141,12.0,16.0,90,0.12,,,0.69,,2013-05-10 00:52:00,
2013-05-09 20:01:00,62.0,59.0,29.78,SE,141,12.0,16.0,90,0.12,,,0.69,,2013-05-10 01:01:00,
2013-05-09 20:11:00,62.0,59.0,29.78,SE,141,12.0,16.0,90,0.12,,,0.69,,2013-05-10 01:11:00,
2013-05-09 20:21:00,62.0,59.0,29.78,SE,141,12.0,16.0,90,0.12,,,0.69,,2013-05-10 01:21:00,
2013-05-09 20:31:00,62.0,59.0,29.78,SE,132,12.0,15.0,91,0.10,,,0.77,,2013-05-10 01:31:00,
2013-05-09 20:42:00,62.0,59.0,29.78,SE,132,12.0,15.0,91,0.10,,,0.77,,2013-05-10 01:42:00,
2013-05-09 20:52:00,62.0,59.0,29.78,SE,132,12.0,15.0,91,0.10,,,0.77,,2013-05-10 01:52:00,
2013-05-09 21:01:00,62.0,60.0,29.78,SE,132,11.0,16.0,92,0.14,,,0.86,,2013-05-10 02:01:00,
2013-05-09 21:11:00,62.0,60.0,29.78,SE,132,11.0,16.0,92,0.14,,,0.86,,2013-05-10 02:11:00,
2013-05-09 21:21:00,62.0,60.0,29.78,SE,132,11.0,16.0,92,0.14,,,0.86,,2013-05-10 02:21:00,
2013-05-09 21:32:00,62.0,60.0,29.79,SSE,148,7.0,15.0,93,0.11,,,0.88,,2013-05-10 02:32:00,
2013-05-09 21:42:00,63.0,61.0,29.79,SSW,207,12.0,23.0,92,0.06,,,0.88,,2013-05-10 02:42:00,
2013-05-09 21:52:00,63.0,61.0,29.79,SSW,207,12.0,23.0,92,0.06,,,0.88,,2013-05-10 02:52:00,
2013-05-09 22:01:00,63.0,60.0,29.79,SW,223,11.0,18.0,91,0.02,,,0.88,,2013-05-10 03:01:00,
2013-05-09 22:11:00,63.0,60.0,29.79,SW,223,11.0,18.0,91,0.02,,,0.88,,2013-05-10 03:11:00,
2013-05-09 22:21:00,63.0,60.0,29.78,SSW,203,11.0,19.0,91,0.00,,,0.88,,2013-05-10 03:21:00,
2013-05-09 22:33:00,63.0,60.0,29.78,SSW,213,11.0,16.0,91,0.00,,,0.88,,2013-05-10 03:33:00,
2013-05-09 22:43:00,63.0,60.0,29.78,SSW,213,11.0,16.0,91,0.00,,,0.88,,2013-05-10 03:43:00,
2013-05-09 22:53:00,63.0,60.0,29.78,SW,214,9.0,16.0,91,0.00,,,0.88,,2013-05-10 03:53:00,
2013-05-09 23:03:00,62.0,59.0,29.78,SSW,212,8.0,12.0,91,0.00,,,0.88,,2013-05-10 04:03:00,
2013-05-09 23:12:00,62.0,59.0,29.78,SSW,212,8.0,12.0,91,0.00,,,0.88,,2013-05-10 04:12:00,
2013-05-09 23:23:00,62.0,60.0,29.78,SW,223,8.0,14.0,92,0.00,,,0.88,,2013-05-10 04:23:00,
2013-05-09 23:33:00,62.0,60.0,29.78,SW,220,8.0,16.0,92,0.00,,,0.88,,2013-05-10 04:33:00,
2013-05-09 23:42:00,62.0,60.0,29.78,SSW,207,7.0,10.0,92,0.00,,,0.88,,2013-05-10 04:42:00,
2013-05-09 23:53:00,62.0,60.0,29.78,SSW,207,7.0,10.0,92,0.00,,,0.88,,2013-05-10 04:53:00,